Loebau, Texas
Current Conditions -  °F | °C
As of 10:55 PM on Thursday 30 Oct 2014 (Local Time) from KGYB Reporting Station
Clear Clear  
Wind Chill: 60°   Ceiling: Unl
Heat Index: 60°   Visibility: 10mi
Dew Point: 54°   Wind: 0mph
Humidity: 81%   Direction: NA
Pressure: 30.14"   Gusts: NA
Location:  30.3175°N, 96.9747°W
Report Text: KGYB 310355Z AUTO 00000KT 10SM CLR 16/12 A3014 RMK AO2 T01570124
Loading
Personal Weather Stations






























Interactive Weather Map
Tropical Storm Tracking
New forecast layout! Learn more

10-Day Weather Forecast

Advertisements
Track Severe Weather on mobile